Time;durP1;ratioP1;P1;durP2;ratioP2;P2;SDS_P1;SDS_P2;PMS_P1;PMS_P2;Temp;Humidity;BMP_temperature;BMP_pressure;BME280_temperature;BME280_humidity;BME280_pressure;Samples;Min_cycle;Max_cycle;Signal;HPM_P1;HPM_P2
2023/02/08 00:00:44;;;;;;;2.05;0.95;;;;;;;-2.63;63.08;98568.22;4967122;28;20134;-58
2023/02/08 00:03:12;;;;;;;0.57;0.52;;;;;;;-2.98;63.55;98505.34;4966198;28;20117;-57
2023/02/08 00:05:39;;;;;;;0.77;0.77;;;;;;;-2.56;63.07;98574.28;4966318;28;20050;-59
2023/02/08 00:08:06;;;;;;;0.47;0.47;;;;;;;-2.58;63.80;98571.03;4948518;29;20079;-55
2023/02/08 00:10:33;;;;;;;0.30;0.30;;;;;;;-2.72;63.59;98545.34;4956667;28;20098;-56
2023/02/08 00:13:00;;;;;;;2.83;2.63;;;;;;;-2.75;63.67;98543.09;4967596;28;20117;-56
2023/02/08 00:15:27;;;;;;;0.40;0.40;;;;;;;-3.04;63.41;98506.34;4957496;28;20055;-58
2023/02/08 00:17:54;;;;;;;7.15;2.83;;;;;;;-3.13;63.23;98526.81;4948064;28;20059;-59
2023/02/08 00:20:21;;;;;;;0.30;0.30;;;;;;;-2.48;63.10;98587.44;4948506;28;20051;-58
2023/02/08 00:22:47;;;;;;;2.70;1.00;;;;;;;-2.91;62.12;98521.44;4950053;28;20086;-57
2023/02/08 00:25:14;;;;;;;0.30;0.30;;;;;;;-2.50;62.98;98594.19;4948054;29;20047;-58
2023/02/08 00:27:41;;;;;;;0.30;0.30;;;;;;;-2.93;64.14;98535.25;4948000;29;20446;-56
2023/02/08 00:30:08;;;;;;;0.85;0.85;;;;;;;-2.64;64.05;98565.78;4948050;28;20047;-58
2023/02/08 00:32:34;;;;;;;0.32;0.32;;;;;;;-2.46;63.63;98598.03;4966492;28;20109;-59
2023/02/08 00:35:01;;;;;;;0.68;0.68;;;;;;;-2.57;63.05;98605.19;4965933;28;20336;-59
2023/02/08 00:37:28;;;;;;;0.40;0.40;;;;;;;-2.87;64.15;98565.94;4966480;28;20162;-58
2023/02/08 00:39:54;;;;;;;3.35;2.35;;;;;;;-2.55;63.45;98602.25;4965577;28;20502;-56
2023/02/08 00:42:21;;;;;;;0.40;0.40;;;;;;;-2.66;63.55;98547.03;4963778;28;20477;-55
2023/02/08 00:44:48;;;;;;;0.60;0.60;;;;;;;-2.57;65.03;98550.97;4947508;28;20051;-58
2023/02/08 00:47:14;;;;;;;0.30;0.30;;;;;;;-2.25;64.38;98592.66;4947669;29;20094;-56
2023/02/08 00:49:41;;;;;;;2.05;1.95;;;;;;;-2.07;63.48;98595.06;4948869;28;20042;-55
2023/02/08 00:52:08;;;;;;;0.60;0.60;;;;;;;-2.27;62.52;98608.34;4951598;28;20055;-56
2023/02/08 00:54:34;;;;;;;0.22;0.22;;;;;;;-2.35;63.48;98602.53;4947705;28;20051;-55
2023/02/08 00:57:01;;;;;;;0.50;0.50;;;;;;;-2.18;62.26;98601.41;4947455;29;20134;-56
2023/02/08 00:59:28;;;;;;;0.35;0.35;;;;;;;-2.35;61.25;98581.66;4947054;28;20102;-55
2023/02/08 01:01:54;;;;;;;0.38;0.38;;;;;;;-2.01;61.45;98604.91;4951441;28;20059;-59
2023/02/08 01:04:21;;;;;;;0.30;0.30;;;;;;;-2.35;60.83;98554.53;4947200;29;20569;-57
2023/02/08 01:06:47;;;;;;;7.13;1.08;;;;;;;-1.83;60.55;98607.31;4946597;29;20121;-59
2023/02/08 01:09:14;;;;;;;1.75;1.65;;;;;;;-2.04;60.67;98564.69;4947381;29;20082;-59
2023/02/08 01:11:41;;;;;;;2.90;1.00;;;;;;;-1.89;61.04;98619.19;4946613;28;20442;-56
2023/02/08 01:14:07;;;;;;;0.50;0.50;;;;;;;-2.08;61.40;98604.28;4965428;28;20062;-55
2023/02/08 01:16:34;;;;;;;0.30;0.30;;;;;;;-2.62;62.19;98526.47;4957312;28;20475;-59
2023/02/08 01:19:03;;;;;;;0.30;0.30;;;;;;;-2.02;62.47;98608.69;4947243;28;20086;-56
2023/02/08 01:21:35;;;;;;;0.30;0.30;;;;;;;-1.96;63.00;98626.69;4946410;28;20043;-56
2023/02/08 01:24:02;;;;;;;1.38;1.38;;;;;;;-1.92;61.49;98616.16;4947480;29;20122;-60
2023/02/08 01:26:29;;;;;;;1.50;1.05;;;;;;;-1.97;60.32;98616.91;4946840;29;20114;-59
2023/02/08 01:28:56;;;;;;;0.20;0.20;;;;;;;-1.84;59.94;98616.53;4946547;28;20530;-59
2023/02/08 01:31:35;;;;;;;1.77;1.00;;;;;;;-1.99;58.70;98586.47;4951948;28;20062;-58
2023/02/08 01:34:03;;;;;;;0.30;0.30;;;;;;;-1.75;58.92;98615.03;4966197;28;20498;-57
2023/02/08 01:36:31;;;;;;;0.60;0.60;;;;;;;-1.73;59.79;98615.59;4961123;28;20081;-55
2023/02/08 01:38:58;;;;;;;0.30;0.30;;;;;;;-1.57;60.17;98612.00;4946080;28;20090;-58
2023/02/08 01:41:30;;;;;;;0.22;0.22;;;;;;;-1.58;59.78;98617.66;4946009;29;20138;-58
2023/02/08 01:44:08;;;;;;;0.30;0.30;;;;;;;-1.65;59.92;98612.44;4946719;29;20474;-59
2023/02/08 01:46:43;;;;;;;0.30;0.30;;;;;;;-2.05;60.26;98554.91;4946270;28;20058;-55
2023/02/08 01:49:18;;;;;;;0.30;0.30;;;;;;;-1.66;59.00;98608.06;4945370;28;20058;-58
2023/02/08 01:52:08;;;;;;;0.32;0.32;;;;;;;-1.61;59.70;98635.28;4946227;29;20051;-59
2023/02/08 01:54:39;;;;;;;0.30;0.30;;;;;;;-1.61;58.68;98627.13;4945547;29;20239;-55
2023/02/08 01:57:06;;;;;;;0.30;0.30;;;;;;;-1.55;59.06;98630.75;4949697;28;20051;-57
2023/02/08 01:59:40;;;;;;;0.30;0.30;;;;;;;-1.59;59.59;98624.16;4963990;28;20137;-55
2023/02/08 02:02:12;;;;;;;4.68;4.47;;;;;;;-2.64;60.12;98452.69;4964230;28;20091;-59
2023/02/08 02:04:39;;;;;;;0.30;0.30;;;;;;;-1.82;60.33;98581.78;4965910;28;20133;-55
2023/02/08 02:07:06;;;;;;;5.10;4.68;;;;;;;-1.48;60.62;98625.09;4964670;28;20055;-58
2023/02/08 02:10:07;;;;;;;1.02;0.93;;;;;;;-1.58;59.53;98629.34;4966036;28;20071;-57
2023/02/08 02:12:37;;;;;;;0.95;0.95;;;;;;;-1.62;60.69;98630.94;4965003;28;20050;-56
2023/02/08 02:15:05;;;;;;;2.20;0.85;;;;;;;-1.41;59.64;98632.00;4963725;28;20387;-59
2023/02/08 02:17:32;;;;;;;0.50;0.50;;;;;;;-1.42;59.63;98622.19;4965257;28;20058;-58
2023/02/08 02:20:22;;;;;;;0.45;0.45;;;;;;;-1.38;59.70;98620.63;4963673;28;20572;-59
2023/02/08 02:23:14;;;;;;;0.30;0.30;;;;;;;-1.53;60.69;98627.78;4965015;28;20419;-56
2023/02/08 02:25:59;;;;;;;0.40;0.40;;;;;;;-1.40;60.18;98649.09;4955950;28;20087;-56
2023/02/08 02:28:47;;;;;;;6.28;2.55;;;;;;;-1.56;60.47;98629.09;4945535;28;20048;-59
2023/02/08 02:31:14;;;;;;;0.30;0.30;;;;;;;-1.61;60.75;98638.00;4949178;28;20101;-59
2023/02/08 02:34:18;;;;;;;0.28;0.28;;;;;;;-1.63;60.73;98645.56;4964577;28;20054;-59
2023/02/08 02:36:45;;;;;;;0.52;0.52;;;;;;;-1.56;60.53;98640.78;4964694;28;20141;-58
2023/02/08 02:39:32;;;;;;;0.30;0.30;;;;;;;-1.54;59.88;98643.25;4965298;28;20101;-58
2023/02/08 02:45:25;;;;;;;0.30;0.30;;;;;;;-1.49;60.75;98656.06;4965332;28;20129;-56
2023/02/08 02:48:00;;;;;;;0.30;0.30;;;;;;;-1.52;60.30;98656.56;4963651;28;20042;-56
2023/02/08 02:50:34;;;;;;;0.30;0.30;;;;;;;-1.65;60.74;98664.03;4965380;28;20132;-57
2023/02/08 02:53:09;;;;;;;0.40;0.40;;;;;;;-1.52;60.67;98658.22;4965036;28;20074;-56
2023/02/08 02:55:41;;;;;;;4.88;4.68;;;;;;;-1.57;60.37;98660.88;4964550;28;20078;-56
2023/02/08 02:58:12;;;;;;;0.30;0.30;;;;;;;-1.45;59.84;98663.44;4965088;28;20398;-59
2023/02/08 03:00:39;;;;;;;0.30;0.30;;;;;;;-1.75;60.80;98625.88;4968078;28;20058;-59
2023/02/08 03:03:20;;;;;;;0.30;0.30;;;;;;;-1.37;62.06;98664.91;4967903;28;20054;-56
2023/02/08 03:05:47;;;;;;;0.73;0.73;;;;;;;-1.37;62.12;98660.28;4967034;28;20059;-57
2023/02/08 03:08:34;;;;;;;1.70;1.40;;;;;;;-1.34;62.09;98669.84;4968572;28;20125;-59
2023/02/08 03:11:24;;;;;;;4.97;4.68;;;;;;;-1.33;62.11;98683.19;4962813;28;20105;-58
2023/02/08 03:14:33;;;;;;;0.30;0.30;;;;;;;-1.35;62.21;98668.19;4949890;28;20059;-58
2023/02/08 03:17:00;;;;;;;2.22;1.65;;;;;;;-1.47;63.08;98662.06;4968277;28;20086;-58
2023/02/08 03:19:59;;;;;;;0.20;0.20;;;;;;;-1.46;62.61;98661.00;4968581;28;20359;-58
2023/02/08 03:22:32;;;;;;;1.48;0.98;;;;;;;-1.52;62.81;98658.22;4965374;28;20082;-59
2023/02/08 03:25:08;;;;;;;0.35;0.35;;;;;;;-2.27;63.69;98564.13;4968543;28;20058;-56
2023/02/08 03:28:07;;;;;;;0.30;0.30;;;;;;;-1.58;64.50;98671.97;4967057;28;20137;-56
2023/02/08 03:30:50;;;;;;;0.30;0.30;;;;;;;-1.63;64.23;98661.88;4968393;28;20058;-58
2023/02/08 03:33:26;;;;;;;0.30;0.30;;;;;;;-1.90;63.16;98628.38;4967162;28;20058;-58
2023/02/08 03:36:05;;;;;;;0.22;0.22;;;;;;;-2.12;62.93;98586.84;4968213;28;20489;-57
2023/02/08 03:38:42;;;;;;;1.15;1.15;;;;;;;-1.64;62.99;98676.53;4966527;28;20070;-58
2023/02/08 03:41:14;;;;;;;0.70;0.70;;;;;;;-2.08;62.94;98592.59;4966875;28;20094;-58
2023/02/08 03:43:54;;;;;;;6.75;3.50;;;;;;;-2.72;62.70;98591.44;4948801;28;20094;-55
2023/02/08 03:46:29;;;;;;;0.30;0.30;;;;;;;-2.04;63.49;98678.69;4947827;29;20273;-55
2023/02/08 03:49:09;;;;;;;0.30;0.30;;;;;;;-2.43;64.10;98573.94;4951637;28;20120;-59
2023/02/08 03:51:40;;;;;;;0.32;0.32;;;;;;;-2.10;63.14;98638.16;4966700;28;20100;-58
2023/02/08 03:54:14;;;;;;;0.30;0.30;;;;;;;-1.68;62.67;98680.84;4966281;28;20050;-60
2023/02/08 03:56:44;;;;;;;0.30;0.30;;;;;;;-2.19;61.94;98591.66;4967583;28;20090;-55
2023/02/08 03:59:19;;;;;;;0.30;0.30;;;;;;;-2.22;62.60;98584.00;4965799;28;20117;-59
2023/02/08 04:01:52;;;;;;;0.47;0.47;;;;;;;-1.67;62.67;98671.63;4948005;28;20059;-56
2023/02/08 04:04:20;;;;;;;1.85;1.75;;;;;;;-1.52;63.36;98682.66;4949118;28;20058;-59
2023/02/08 04:06:47;;;;;;;3.42;3.25;;;;;;;-1.45;62.61;98681.66;4963383;28;20066;-56
2023/02/08 04:09:13;;;;;;;0.35;0.35;;;;;;;-1.55;61.81;98680.44;4965868;28;20140;-59
2023/02/08 04:11:40;;;;;;;0.52;0.52;;;;;;;-1.86;62.01;98618.69;4966245;28;20565;-56
2023/02/08 04:14:07;;;;;;;5.78;5.32;;;;;;;-1.77;61.46;98636.16;4956985;28;20505;-58
2023/02/08 04:16:33;;;;;;;0.30;0.30;;;;;;;-2.10;61.31;98590.13;4948174;28;20126;-56
2023/02/08 04:19:00;;;;;;;0.30;0.30;;;;;;;-1.49;61.67;98677.81;4947960;29;20337;-58
2023/02/08 04:21:26;;;;;;;0.40;0.40;;;;;;;-1.37;61.45;98702.94;4947676;29;20086;-59
2023/02/08 04:23:53;;;;;;;2.05;1.27;;;;;;;-1.44;63.06;98702.31;4947267;28;20448;-55
2023/02/08 04:26:19;;;;;;;3.22;3.03;;;;;;;-1.71;63.11;98689.47;4965766;28;20467;-57
2023/02/08 04:28:46;;;;;;;0.60;0.60;;;;;;;-1.61;63.80;98719.50;4967027;28;20055;-56
2023/02/08 04:31:13;;;;;;;0.32;0.32;;;;;;;-1.56;63.85;98722.28;4966383;28;20592;-56
2023/02/08 04:33:40;;;;;;;7.63;2.90;;;;;;;-1.94;64.24;98657.13;4967031;28;20125;-58
2023/02/08 04:36:07;;;;;;;0.30;0.30;;;;;;;-1.48;63.93;98733.78;4966892;28;20090;-58
2023/02/08 04:38:34;;;;;;;0.45;0.45;;;;;;;-1.86;64.02;98689.28;4967144;28;20117;-55
2023/02/08 04:41:01;;;;;;;0.88;0.88;;;;;;;-1.63;63.69;98718.91;4965070;28;20054;-56
2023/02/08 04:43:27;;;;;;;0.30;0.30;;;;;;;-1.67;63.57;98698.78;4966732;28;20055;-58
2023/02/08 04:45:54;;;;;;;7.32;3.40;;;;;;;-1.58;63.49;98735.28;4966963;28;20067;-55
2023/02/08 04:48:21;;;;;;;0.43;0.43;;;;;;;-1.41;63.77;98750.72;4965511;28;20101;-59
2023/02/08 04:50:47;;;;;;;0.52;0.52;;;;;;;-1.45;63.72;98755.03;4958958;28;20094;-56
2023/02/08 04:53:14;;;;;;;4.57;1.40;;;;;;;-1.82;63.44;98690.41;4947454;29;20475;-56
2023/02/08 04:55:40;;;;;;;0.30;0.30;;;;;;;-1.68;62.98;98751.47;4947154;29;20467;-58
2023/02/08 04:58:07;;;;;;;2.30;1.42;;;;;;;-1.55;63.13;98772.03;4945929;29;20142;-58
2023/02/08 05:00:34;;;;;;;0.55;0.55;;;;;;;-1.62;62.80;98772.19;4947390;28;20512;-55
2023/02/08 05:03:00;;;;;;;0.40;0.40;;;;;;;-1.68;62.85;98784.06;4946002;29;20055;-56
2023/02/08 05:05:27;;;;;;;1.77;1.60;;;;;;;-1.75;62.26;98788.84;4947086;28;20055;-55
2023/02/08 05:07:53;;;;;;;0.60;0.60;;;;;;;-1.93;62.86;98753.00;4947089;29;20610;-57
2023/02/08 05:10:20;;;;;;;4.50;3.15;;;;;;;-1.71;62.92;98789.16;4945748;29;20412;-55
2023/02/08 05:12:47;;;;;;;3.50;2.03;;;;;;;-1.95;63.24;98772.25;4945481;29;20063;-58
2023/02/08 05:15:14;;;;;;;12.63;3.22;;;;;;;-2.53;64.71;98731.09;4946795;28;20491;-55
2023/02/08 05:17:40;;;;;;;14.68;5.43;;;;;;;-2.73;64.80;98727.22;4947785;28;20156;-58
2023/02/08 05:20:08;;;;;;;19.33;7.80;;;;;;;-2.38;64.54;98798.38;4946565;28;20059;-58
2023/02/08 05:22:34;;;;;;;14.60;4.47;;;;;;;-2.86;65.21;98731.06;4946522;28;20107;-55
2023/02/08 05:25:01;;;;;;;6.93;3.03;;;;;;;-2.48;65.42;98809.88;4946924;28;20109;-55
2023/02/08 05:27:28;;;;;;;6.70;1.27;;;;;;;-2.81;66.37;98760.97;4952638;28;20049;-55
2023/02/08 05:29:54;;;;;;;13.57;6.15;;;;;;;-2.98;66.01;98749.28;4966670;28;20055;-55
2023/02/08 05:32:24;;;;;;;21.50;5.93;;;;;;;-2.54;66.35;98827.13;4966063;28;20058;-58
2023/02/08 05:34:51;;;;;;;10.00;4.05;;;;;;;-2.51;65.72;98832.06;4964714;28;20055;-55
2023/02/08 05:37:17;;;;;;;2.17;1.08;;;;;;;-2.44;66.18;98843.59;4947442;28;20145;-55
2023/02/08 05:39:44;;;;;;;2.63;1.30;;;;;;;-2.42;66.88;98836.00;4946751;29;20082;-58
2023/02/08 05:42:11;;;;;;;22.25;3.97;;;;;;;-2.39;67.09;98846.41;4946530;29;20087;-57
2023/02/08 05:44:37;;;;;;;14.23;4.22;;;;;;;-2.50;67.34;98850.00;4946944;29;20138;-55
2023/02/08 05:47:04;;;;;;;4.80;1.98;;;;;;;-2.48;68.00;98847.84;4947166;28;20051;-55
2023/02/08 05:49:31;;;;;;;8.00;4.25;;;;;;;-3.14;68.36;98750.88;4965884;28;20486;-56
2023/02/08 05:51:57;;;;;;;4.90;3.63;;;;;;;-2.62;68.85;98827.50;4964538;28;20058;-58
2023/02/08 05:54:24;;;;;;;14.18;4.00;;;;;;;-2.50;70.43;98860.03;4946461;29;20051;-59
2023/02/08 05:56:51;;;;;;;4.40;2.28;;;;;;;-2.38;69.95;98858.91;4946839;28;20494;-59
2023/02/08 05:59:17;;;;;;;7.35;3.60;;;;;;;-2.40;70.50;98850.16;4944549;29;20059;-58
2023/02/08 06:01:44;;;;;;;0.95;0.73;;;;;;;-2.67;70.96;98800.28;4945767;28;20106;-60
2023/02/08 06:04:10;;;;;;;7.10;3.83;;;;;;;-2.49;70.49;98846.22;4944720;29;20581;-56
2023/02/08 06:06:37;;;;;;;1.85;1.45;;;;;;;-2.31;71.10;98848.69;4945581;28;20078;-56
2023/02/08 06:09:04;;;;;;;6.93;1.95;;;;;;;-2.56;70.99;98932.31;4963183;28;20103;-58
2023/02/08 06:11:30;;;;;;;11.32;3.08;;;;;;;-2.37;70.00;98844.25;4963784;28;20050;-55
2023/02/08 06:13:57;;;;;;;13.00;5.60;;;;;;;-2.43;69.74;98823.53;4964070;28;20055;-59
2023/02/08 06:16:24;;;;;;;4.53;2.80;;;;;;;-2.32;68.59;98841.63;4964412;28;20498;-57
2023/02/08 06:18:50;;;;;;;11.07;3.42;;;;;;;-2.39;68.70;98851.84;4965361;28;20066;-58
2023/02/08 06:21:17;;;;;;;4.75;1.88;;;;;;;-3.19;69.24;98720.13;4965086;28;20094;-56
2023/02/08 06:23:44;;;;;;;3.53;2.53;;;;;;;-2.32;69.78;98852.50;4965044;28;20116;-58
2023/02/08 06:26:10;;;;;;;9.23;3.97;;;;;;;-2.63;69.17;98844.84;4965074;28;20076;-56
2023/02/08 06:28:37;;;;;;;7.95;3.22;;;;;;;-2.42;69.06;98852.28;4947571;28;20095;-58
2023/02/08 06:31:04;;;;;;;8.95;6.78;;;;;;;-2.32;69.49;98851.66;4945335;28;20109;-58
2023/02/08 06:33:31;;;;;;;1.55;0.65;;;;;;;-2.40;69.45;98855.59;4955322;28;20051;-59
2023/02/08 06:35:57;;;;;;;4.28;1.50;;;;;;;-2.18;69.16;98869.31;4968752;28;20105;-59
2023/02/08 06:38:24;;;;;;;5.85;2.85;;;;;;;-2.21;67.13;98870.59;4967551;28;20055;-59
2023/02/08 06:40:51;;;;;;;2.47;1.90;;;;;;;-2.27;68.51;98871.59;4968392;28;20128;-57
2023/02/08 06:43:17;;;;;;;6.97;2.58;;;;;;;-2.23;67.59;98916.16;4969150;28;20505;-55
2023/02/08 06:45:45;;;;;;;8.90;3.58;;;;;;;-2.28;66.88;98864.53;4968679;28;20055;-59
2023/02/08 06:48:12;;;;;;;14.68;3.85;;;;;;;-2.35;67.28;98869.25;4962346;28;20050;-57
2023/02/08 06:50:39;;;;;;;5.97;3.72;;;;;;;-2.60;66.39;98800.97;4961968;28;20043;-60
2023/02/08 06:53:06;;;;;;;6.78;2.90;;;;;;;-2.53;66.76;98828.75;4956065;28;20082;-57
2023/02/08 06:55:33;;;;;;;5.65;2.60;;;;;;;-2.26;66.94;98861.56;4987732;28;20703;-55
2023/02/08 06:57:59;;;;;;;4.90;2.63;;;;;;;-2.35;67.45;98858.41;4987356;28;20086;-56
2023/02/08 07:00:26;;;;;;;1.50;0.98;;;;;;;-2.94;67.60;98739.59;4987769;28;20142;-57
2023/02/08 07:02:53;;;;;;;5.18;3.45;;;;;;;-3.09;67.46;98750.16;4987131;28;20061;-56
2023/02/08 07:05:19;;;;;;;8.65;3.85;;;;;;;-2.66;68.04;98875.19;4986389;28;20054;-57
2023/02/08 07:07:47;;;;;;;3.42;1.20;;;;;;;-3.15;67.90;98759.25;4964798;28;20062;-57
2023/02/08 07:10:15;;;;;;;5.95;2.28;;;;;;;-2.57;68.76;98865.59;4988053;28;20433;-56
2023/02/08 07:12:41;;;;;;;6.68;2.88;;;;;;;-3.71;68.12;98667.09;4986478;28;20054;-59
2023/02/08 07:15:11;;;;;;;5.18;3.28;;;;;;;-2.57;69.30;98875.59;4987549;28;20525;-57
2023/02/08 07:17:39;;;;;;;4.32;1.98;;;;;;;-3.26;69.27;98735.72;4948442;29;20066;-56
2023/02/08 07:20:06;;;;;;;11.20;5.55;;;;;;;-2.59;68.31;98870.41;4947113;28;20058;-59
2023/02/08 07:22:33;;;;;;;8.88;3.63;;;;;;;-2.42;68.18;98863.13;4963496;28;20058;-55
2023/02/08 07:24:59;;;;;;;11.00;4.07;;;;;;;-2.88;66.38;98787.44;4985825;28;20082;-57
2023/02/08 07:27:26;;;;;;;2.75;1.00;;;;;;;-2.30;65.16;98833.25;4969528;28;20061;-55
2023/02/08 07:29:53;;;;;;;4.20;2.38;;;;;;;-2.32;63.69;98792.78;4969416;28;21174;-56
2023/02/08 07:32:20;;;;;;;0.90;0.90;;;;;;;-2.32;63.91;98874.19;4966595;28;20117;-55
2023/02/08 07:34:47;;;;;;;2.15;1.95;;;;;;;-2.53;63.75;98817.91;4969697;28;20109;-55
2023/02/08 07:37:14;;;;;;;14.32;4.22;;;;;;;-1.87;62.06;98883.16;4950885;28;20170;-54
2023/02/08 07:39:40;;;;;;;4.78;2.25;;;;;;;-1.82;61.72;98896.81;4975978;28;20097;-55
2023/02/08 07:42:10;;;;;;;3.70;1.63;;;;;;;-2.23;62.66;98829.31;4966245;28;20134;-54
2023/02/08 07:44:37;;;;;;;6.32;1.80;;;;;;;-3.10;61.50;98672.63;4966121;28;20847;-55
2023/02/08 07:47:05;;;;;;;1.60;1.50;;;;;;;-1.52;61.67;98880.19;4957260;28;20162;-58
2023/02/08 07:49:32;;;;;;;3.55;1.85;;;;;;;-2.15;60.75;98777.34;4970357;28;20046;-54
2023/02/08 07:52:00;;;;;;;8.63;3.72;;;;;;;-2.75;60.06;98689.50;4963955;28;20565;-59
2023/02/08 07:54:27;;;;;;;1.55;1.20;;;;;;;-1.54;59.96;98811.69;4974589;28;20467;-59
2023/02/08 07:56:54;;;;;;;4.85;2.03;;;;;;;-0.97;58.71;98888.34;4965789;28;20088;-55
2023/02/08 07:59:21;;;;;;;7.47;2.42;;;;;;;-0.89;58.85;98890.63;4979149;28;20050;-56
2023/02/08 08:01:48;;;;;;;1.40;1.30;;;;;;;-1.06;58.01;98862.66;4955413;28;20054;-60
2023/02/08 08:04:15;;;;;;;13.68;4.95;;;;;;;-0.88;58.13;98873.22;4974913;28;20399;-60
2023/02/08 08:06:41;;;;;;;5.68;3.17;;;;;;;-1.27;57.41;98804.47;4962378;28;20400;-59
2023/02/08 08:09:09;;;;;;;8.68;3.13;;;;;;;-1.98;58.18;98715.72;4958652;28;20138;-57
2023/02/08 08:11:36;;;;;;;11.85;4.50;;;;;;;-0.79;58.59;98902.44;4956124;28;20514;-56
2023/02/08 08:14:03;;;;;;;13.68;4.47;;;;;;;-0.78;58.72;98870.63;4975688;28;20057;-57
2023/02/08 08:16:29;;;;;;;9.35;3.58;;;;;;;-0.75;57.15;98908.22;4966891;28;20087;-58
2023/02/08 08:18:56;;;;;;;6.93;2.88;;;;;;;-0.73;56.39;98904.19;4964202;28;20051;-56
2023/02/08 08:21:22;;;;;;;9.13;3.35;;;;;;;-1.59;58.47;98853.19;4958834;28;20097;-60
2023/02/08 08:23:49;;;;;;;3.25;1.48;;;;;;;-0.98;58.62;98916.63;4972110;28;20108;-56
2023/02/08 08:26:19;;;;;;;12.98;3.53;;;;;;;-1.22;58.59;98924.16;4971355;28;20125;-58
2023/02/08 08:28:46;;;;;;;11.80;5.55;;;;;;;-1.04;58.26;98921.16;4975295;28;20047;-57
2023/02/08 08:31:19;;;;;;;6.15;3.22;;;;;;;-3.85;57.61;98460.03;4962346;28;20055;-57
2023/02/08 08:33:46;;;;;;;6.78;3.53;;;;;;;-1.52;58.21;98873.94;4956329;28;20055;-57
2023/02/08 08:36:13;;;;;;;6.47;2.15;;;;;;;-1.37;58.13;98909.47;4951804;28;20065;-60
2023/02/08 08:38:40;;;;;;;1.90;1.67;;;;;;;-1.21;57.43;98879.56;4963623;28;20074;-54
2023/02/08 08:41:09;;;;;;;0.50;0.50;;;;;;;-1.12;56.12;98880.78;4953867;28;20058;-58
2023/02/08 08:43:36;;;;;;;1.88;1.17;;;;;;;-0.38;55.00;98926.38;4955108;28;20058;-59
2023/02/08 08:46:05;;;;;;;9.70;4.38;;;;;;;-0.47;54.87;98921.63;4945653;28;20055;-58
2023/02/08 08:48:34;;;;;;;8.02;3.88;;;;;;;-0.54;55.79;98937.34;4965463;28;20105;-56
2023/02/08 08:51:00;;;;;;;3.05;1.83;;;;;;;-0.57;56.68;98940.56;4966401;28;20086;-56
2023/02/08 08:53:27;;;;;;;7.30;3.03;;;;;;;-1.18;55.59;98821.97;4972593;28;20061;-57
2023/02/08 08:55:54;;;;;;;8.82;4.13;;;;;;;-1.44;55.85;98839.03;4962763;28;20055;-58
2023/02/08 08:58:21;;;;;;;10.77;4.57;;;;;;;-1.02;55.07;98861.06;4954334;28;20050;-56
2023/02/08 09:00:47;;;;;;;7.00;4.38;;;;;;;-1.53;55.80;98817.97;4945767;28;20134;-56
2023/02/08 09:03:14;;;;;;;6.80;2.22;;;;;;;-0.45;56.62;98944.81;4949169;28;20047;-60
2023/02/08 09:05:41;;;;;;;4.65;2.45;;;;;;;-0.96;56.50;98819.25;4966095;28;20065;-58
2023/02/08 09:08:07;;;;;;;10.27;5.40;;;;;;;-1.13;54.57;98780.44;4966818;28;20058;-56
2023/02/08 09:10:34;;;;;;;2.00;1.60;;;;;;;-0.36;55.25;98935.13;4960031;28;20573;-55
2023/02/08 09:13:01;;;;;;;8.02;3.67;;;;;;;-0.13;54.99;98939.47;4949486;28;20166;-55
2023/02/08 09:15:27;;;;;;;8.75;4.40;;;;;;;-0.45;54.62;98952.16;4948249;28;20487;-55
2023/02/08 09:17:54;;;;;;;3.47;1.52;;;;;;;-0.89;54.81;98868.88;4952890;28;20122;-54
2023/02/08 09:20:21;;;;;;;2.85;1.92;;;;;;;-0.98;55.22;98886.69;4955482;28;20058;-58
2023/02/08 09:22:47;;;;;;;9.85;3.10;;;;;;;-0.49;54.43;98954.53;4959886;28;20054;-58
2023/02/08 09:25:14;;;;;;;10.50;3.85;;;;;;;-0.43;53.98;98955.44;4961547;28;20449;-55
2023/02/08 09:27:41;;;;;;;1.30;1.23;;;;;;;-0.25;54.92;98946.94;4975341;28;20137;-57
2023/02/08 09:30:09;;;;;;;9.13;5.10;;;;;;;-0.18;53.47;98907.56;4983829;28;20077;-56
2023/02/08 09:32:38;;;;;;;4.35;2.38;;;;;;;-0.13;53.78;98956.63;4953500;28;20158;-61
2023/02/08 09:35:06;;;;;;;7.03;1.60;;;;;;;-0.13;53.26;98904.06;4945423;28;20055;-54
2023/02/08 09:37:33;;;;;;;7.22;3.50;;;;;;;-0.06;54.93;98959.16;4951262;28;20166;-57
2023/02/08 09:40:00;;;;;;;7.07;3.33;;;;;;;-0.04;54.22;98937.94;4983268;28;20080;-53
2023/02/08 09:42:40;;;;;;;3.10;0.47;;;;;;;-0.09;53.51;98946.03;4965132;28;20047;-54
2023/02/08 09:45:30;;;;;;;2.20;2.00;;;;;;;-0.33;54.23;98958.28;4955652;28;20088;-56
2023/02/08 09:48:14;;;;;;;5.30;1.98;;;;;;;-1.15;55.62;98794.28;4962092;28;20051;-56
2023/02/08 09:50:50;;;;;;;9.07;2.17;;;;;;;-0.60;55.89;98922.03;4971768;28;20051;-55
2023/02/08 09:53:43;;;;;;;10.60;3.65;;;;;;;-0.21;54.91;98931.75;4960866;28;20126;-59
2023/02/08 09:56:14;;;;;;;4.35;2.92;;;;;;;-0.41;55.17;98965.00;4957740;28;20055;-57
2023/02/08 09:58:48;;;;;;;10.18;2.50;;;;;;;-0.70;55.61;98881.06;4971465;28;20527;-59
2023/02/08 10:01:22;;;;;;;6.18;1.77;;;;;;;-0.54;56.62;98945.50;4965031;28;20071;-58
2023/02/08 10:03:52;;;;;;;9.30;3.67;;;;;;;-0.87;56.35;98904.81;4960891;28;20050;-61
2023/02/08 10:06:20;;;;;;;10.02;4.72;;;;;;;-0.50;55.79;98960.25;4965033;28;20059;-57
2023/02/08 10:08:49;;;;;;;4.00;1.85;;;;;;;-0.51;56.12;98920.50;4972419;28;20564;-58
2023/02/08 10:11:34;;;;;;;5.55;2.75;;;;;;;-0.45;56.30;98930.38;4982995;28;20056;-59
2023/02/08 10:14:12;;;;;;;4.28;3.30;;;;;;;-0.42;55.92;98935.31;4982620;28;20102;-58
2023/02/08 10:17:24;;;;;;;9.60;3.40;;;;;;;-0.60;55.21;98938.34;4945852;28;20055;-59
2023/02/08 10:20:17;;;;;;;8.52;3.22;;;;;;;-0.82;56.23;98941.03;4948967;28;20059;-58
2023/02/08 10:23:02;;;;;;;;;;;;;;;-0.39;56.29;98919.28;4947295;28;20067;-58
2023/02/08 10:25:56;;;;;;;2.35;1.67;;;;;;;-0.22;54.70;98928.19;4984224;28;20030;-58
2023/02/08 10:28:22;;;;;;;;;;;;;;;0.00;53.98;99020.78;4983820;28;20565;-58
2023/02/08 10:31:17;;;;;;;1.20;1.10;;;;;;;-0.07;53.34;98933.00;4982839;28;20401;-57
2023/02/08 10:34:06;;;;;;;8.85;3.70;;;;;;;0.14;52.86;98937.59;4983005;28;20073;-58
2023/02/08 10:36:40;;;;;;;4.53;2.22;;;;;;;-0.96;53.94;98841.00;4965029;28;20065;-62
2023/02/08 10:39:16;;;;;;;11.20;4.55;;;;;;;-0.25;53.88;98936.88;4976583;28;20058;-60
2023/02/08 10:41:46;;;;;;;10.23;4.90;;;;;;;-0.36;53.59;98934.28;4984238;28;20112;-57
2023/02/08 10:44:26;;;;;;;11.40;4.90;;;;;;;-0.74;54.74;98931.63;4983732;28;20102;-58
2023/02/08 10:47:25;;;;;;;6.65;1.75;;;;;;;-0.49;54.85;98934.69;4984593;28;20088;-58
2023/02/08 10:50:28;;;;;;;3.30;1.60;;;;;;;-0.94;54.92;98871.50;4983800;28;20050;-58
2023/02/08 10:52:58;;;;;;;2.38;1.30;;;;;;;-0.46;54.79;98934.19;4983937;28;20105;-59
2023/02/08 10:55:41;;;;;;;10.88;5.28;;;;;;;-0.52;54.06;98935.19;4983575;28;20109;-58
2023/02/08 10:58:16;;;;;;;1.50;0.80;;;;;;;-1.34;54.14;98792.16;4964437;28;20062;-56
2023/02/08 11:00:44;;;;;;;5.15;2.90;;;;;;;-0.68;54.39;98931.44;4947256;28;20059;-57
2023/02/08 11:03:17;;;;;;;6.88;3.92;;;;;;;-0.40;54.27;98933.16;4949048;28;20094;-57
2023/02/08 11:05:44;;;;;;;3.55;1.55;;;;;;;-1.04;54.07;98868.69;4964370;28;20544;-56
2023/02/08 11:08:21;;;;;;;9.73;4.95;;;;;;;-0.40;52.86;98941.31;4958048;28;20043;-54
2023/02/08 11:11:04;;;;;;;6.22;2.42;;;;;;;-0.49;53.42;98951.03;4953811;28;20055;-57
2023/02/08 11:13:44;;;;;;;4.22;2.42;;;;;;;-3.96;53.44;98382.44;4950855;28;20055;-60
2023/02/08 11:16:37;;;;;;;11.52;2.60;;;;;;;-2.07;52.52;98729.97;4955171;28;20078;-56
2023/02/08 11:19:06;;;;;;;16.55;6.93;;;;;;;-0.63;52.92;98941.56;4965682;28;20124;-56
2023/02/08 11:21:49;;;;;;;4.45;2.42;;;;;;;-0.93;51.64;98927.56;4966913;28;20066;-58
2023/02/08 11:24:42;;;;;;;6.20;3.17;;;;;;;-0.71;52.34;98936.56;4978783;28;20054;-56
2023/02/08 11:27:28;;;;;;;12.40;5.90;;;;;;;-0.81;52.68;98941.88;4965823;28;20065;-58
2023/02/08 11:30:14;;;;;;;7.57;2.30;;;;;;;-0.83;54.40;98938.56;4976817;28;20055;-61
2023/02/08 11:32:43;;;;;;;5.07;2.53;;;;;;;-0.40;52.94;98933.16;4963563;28;20046;-58
2023/02/08 11:35:19;;;;;;;10.50;3.35;;;;;;;-0.74;52.48;98937.06;4948403;29;20051;-55
2023/02/08 11:37:52;;;;;;;10.13;4.15;;;;;;;-0.88;52.64;98931.16;4947643;28;20091;-60
2023/02/08 11:40:27;;;;;;;10.32;4.68;;;;;;;-0.93;52.58;98900.38;4986936;28;20075;-58
2023/02/08 11:42:54;;;;;;;8.95;3.80;;;;;;;-1.17;52.84;98823.63;4965204;28;20055;-60
2023/02/08 11:45:26;;;;;;;5.18;2.30;;;;;;;-0.68;52.27;98927.91;4951243;28;20047;-58
2023/02/08 11:47:55;;;;;;;10.75;3.35;;;;;;;-0.25;51.95;98914.25;4952206;28;20069;-57
2023/02/08 11:50:35;;;;;;;3.15;2.08;;;;;;;-0.53;51.68;98928.94;4964062;28;20047;-58
2023/02/08 11:53:27;;;;;;;5.47;2.55;;;;;;;-0.65;52.30;98921.97;4965721;28;20058;-57